createdAt,value
2018-06-01T00:00:02.258Z,38.00
2018-06-01T00:01:04.758Z,34.93
2018-06-01T00:02:07.264Z,39.20
2018-06-01T00:03:09.785Z,34.90
2018-06-01T00:04:12.281Z,37.70
2018-06-01T00:05:14.785Z,37.23
2018-06-01T00:06:17.316Z,37.33
2018-06-01T00:07:19.799Z,35.90
2018-06-01T00:08:22.296Z,37.10
2018-06-01T00:09:24.800Z,39.20
2018-06-01T00:10:27.316Z,38.57
2018-06-01T00:11:29.836Z,34.10
2018-06-01T00:12:32.322Z,35.50
2018-06-01T00:13:34.852Z,35.93
2018-06-01T00:14:37.339Z,39.90
2018-06-01T00:15:39.861Z,36.60
2018-06-01T00:16:42.366Z,35.50
2018-06-01T00:17:44.846Z,34.80
2018-06-01T00:18:47.347Z,36.00
2018-06-01T00:19:49.844Z,37.30
2018-06-01T00:20:52.342Z,36.60
2018-06-01T00:21:54.833Z,36.53
2018-06-01T00:22:57.356Z,37.80
2018-06-01T00:23:59.891Z,36.07
2018-06-01T00:25:02.398Z,33.37
2018-06-01T00:26:04.902Z,35.83
2018-06-01T00:27:07.384Z,31.83
2018-06-01T00:28:09.899Z,37.07
2018-06-01T00:29:12.394Z,37.70
2018-06-01T00:30:14.922Z,35.67
2018-06-01T00:31:17.432Z,33.20
2018-06-01T00:32:19.916Z,33.00
2018-06-01T00:33:22.428Z,33.40
2018-06-01T00:34:24.963Z,34.27
2018-06-01T00:35:27.483Z,36.50
2018-06-01T00:36:29.999Z,34.23
2018-06-01T00:37:32.516Z,36.13
2018-06-01T00:38:34.998Z,33.40
2018-06-01T00:39:37.498Z,33.10
2018-06-01T00:40:40.004Z,35.40
2018-06-01T00:41:42.525Z,36.80
2018-06-01T00:42:45.015Z,35.43
2018-06-01T00:43:47.509Z,36.33
2018-06-01T00:44:50.015Z,36.00
2018-06-01T00:45:52.498Z,35.23
2018-06-01T00:46:54.991Z,38.73
2018-06-01T00:47:57.470Z,35.17
2018-06-01T00:48:59.984Z,49.73
2018-06-01T00:50:02.490Z,36.03
2018-06-01T00:51:04.990Z,38.90
2018-06-01T00:52:07.473Z,33.90
2018-06-01T00:53:09.990Z,36.33
2018-06-01T00:54:12.482Z,35.83
2018-06-01T00:55:24.920Z,39.00
2018-06-01T00:56:27.421Z,34.80
2018-06-01T00:57:30.730Z,35.47
2018-06-01T00:58:33.219Z,37.37
2018-06-01T00:59:35.722Z,29.17
2018-06-01T01:00:38.259Z,37.13
2018-06-01T01:01:40.756Z,33.73
2018-06-01T01:02:43.257Z,34.73
2018-06-01T01:03:45.758Z,33.37
2018-06-01T01:04:48.267Z,35.10
2018-06-01T01:05:50.770Z,34.90
2018-06-01T01:06:53.285Z,34.70
2018-06-01T01:07:55.814Z,35.57
2018-06-01T01:08:58.320Z,45.77
2018-06-01T01:10:00.807Z,31.73
2018-06-01T01:11:03.343Z,31.93
2018-06-01T01:12:05.884Z,35.10
2018-06-01T01:13:08.414Z,35.23
2018-06-01T01:14:10.928Z,34.30
2018-06-01T01:15:13.428Z,34.13
2018-06-01T01:16:15.952Z,35.30
2018-06-01T01:17:19.384Z,33.10
2018-06-01T01:18:21.881Z,35.43
2018-06-01T01:19:24.358Z,37.10
2018-06-01T01:20:26.857Z,32.50
2018-06-01T01:21:29.383Z,33.70
2018-06-01T01:22:31.912Z,33.80
2018-06-01T01:23:34.582Z,34.50
2018-06-01T01:24:37.141Z,34.83
2018-06-01T01:25:39.636Z,30.10
2018-06-01T01:26:42.180Z,38.70
2018-06-01T01:27:44.704Z,35.00
2018-06-01T01:28:47.214Z,35.43
2018-06-01T01:29:49.752Z,33.03
2018-06-01T01:30:52.271Z,32.00
2018-06-01T01:31:54.807Z,35.40
2018-06-01T01:32:57.322Z,34.33
2018-06-01T01:33:59.804Z,58.17
2018-06-01T01:35:02.284Z,32.50
2018-06-01T01:36:04.766Z,33.30
2018-06-01T01:37:07.267Z,32.10
2018-06-01T01:38:09.775Z,33.87
2018-06-01T01:39:12.281Z,33.90
2018-06-01T01:40:14.812Z,31.23
2018-06-01T01:41:17.529Z,34.43
2018-06-01T01:42:20.041Z,33.43
2018-06-01T01:43:22.526Z,33.67
2018-06-01T01:44:25.044Z,32.33
2018-06-01T01:45:27.534Z,31.93
2018-06-01T01:46:30.030Z,32.30
2018-06-01T01:47:32.543Z,31.20
2018-06-01T01:48:35.031Z,32.13
2018-06-01T01:49:37.533Z,30.67
2018-06-01T01:50:40.049Z,35.07
2018-06-01T01:51:42.561Z,32.73
2018-06-01T01:52:45.085Z,30.40
2018-06-01T01:53:47.624Z,33.43
2018-06-01T01:54:50.164Z,33.53
2018-06-01T01:55:52.650Z,31.83
2018-06-01T01:56:55.149Z,31.47
2018-06-01T01:57:57.677Z,33.00
2018-06-01T01:59:00.177Z,36.03
2018-06-01T02:00:02.688Z,34.30
2018-06-01T02:01:05.174Z,30.60
2018-06-01T02:02:07.662Z,32.10
2018-06-01T02:03:10.176Z,29.10
2018-06-01T02:04:12.669Z,31.07
2018-06-01T02:05:15.194Z,31.50
2018-06-01T02:06:17.714Z,29.83
2018-06-01T02:07:20.245Z,31.23
2018-06-01T02:08:22.780Z,33.47
2018-06-01T02:09:25.281Z,30.50
2018-06-01T02:10:27.780Z,28.73
2018-06-01T02:11:30.262Z,33.43
2018-06-01T02:12:32.751Z,30.17
2018-06-01T02:13:35.246Z,32.30
2018-06-01T02:14:37.756Z,31.70
2018-06-01T02:15:40.242Z,29.50
2018-06-01T02:16:42.757Z,33.07
2018-06-01T02:17:45.247Z,34.27
2018-06-01T02:18:47.761Z,28.63
2018-06-01T02:19:50.261Z,29.13
2018-06-01T02:20:52.757Z,28.80
2018-06-01T02:21:55.297Z,32.00
2018-06-01T02:22:57.797Z,29.87
2018-06-01T02:24:00.316Z,35.00
2018-06-01T02:25:02.824Z,34.53
2018-06-01T02:26:05.343Z,31.90
2018-06-01T02:27:07.881Z,30.07
2018-06-01T02:28:10.377Z,27.30
2018-06-01T02:29:12.957Z,29.70
2018-06-01T02:30:15.458Z,30.47
2018-06-01T02:31:17.943Z,26.10
2018-06-01T02:32:20.426Z,31.10
2018-06-01T02:33:22.932Z,31.33
2018-06-01T02:34:25.454Z,29.03
2018-06-01T02:35:27.972Z,31.50
2018-06-01T02:36:30.490Z,34.40
2018-06-01T02:37:33.017Z,31.13
2018-06-01T02:38:35.510Z,32.67
2018-06-01T02:39:38.046Z,31.10
2018-06-01T02:40:41.722Z,30.40
2018-06-01T02:41:44.238Z,29.20
2018-06-01T02:42:46.724Z,30.73
2018-06-01T02:43:49.217Z,30.30
2018-06-01T02:44:51.738Z,29.67
2018-06-01T02:45:54.241Z,30.20
2018-06-01T02:46:56.740Z,27.40
2018-06-01T02:47:59.239Z,29.83
2018-06-01T02:49:01.745Z,30.20
2018-06-01T02:50:04.267Z,31.77
2018-06-01T02:51:06.784Z,29.03
2018-06-01T02:52:09.294Z,30.30
2018-06-01T02:53:11.794Z,28.40
2018-06-01T02:54:14.297Z,32.77
2018-06-01T02:55:16.808Z,30.17
2018-06-01T02:56:19.300Z,29.53
2018-06-01T02:57:21.800Z,29.23
2018-06-01T02:58:24.301Z,27.87
2018-06-01T02:59:26.804Z,31.63
2018-06-01T03:00:29.325Z,28.60
2018-06-01T03:01:31.846Z,31.03
2018-06-01T03:02:34.337Z,29.27
2018-06-01T03:03:37.171Z,27.87
2018-06-01T03:04:39.709Z,28.53
2018-06-01T03:05:42.312Z,33.13
2018-06-01T03:06:56.613Z,28.60
2018-06-01T03:07:59.109Z,26.73
2018-06-01T03:09:01.609Z,25.80
2018-06-01T03:10:04.131Z,30.87
2018-06-01T03:11:06.634Z,26.07
2018-06-01T03:12:09.168Z,30.60
2018-06-01T03:13:11.733Z,27.30
2018-06-01T03:14:14.205Z,29.03
2018-06-01T03:15:16.709Z,30.10
2018-06-01T03:16:19.223Z,29.57
2018-06-01T03:17:21.723Z,28.77
2018-06-01T03:18:24.207Z,28.77
2018-06-01T03:19:26.720Z,27.10
2018-06-01T03:20:29.210Z,27.90
2018-06-01T03:21:31.755Z,28.27
2018-06-01T03:22:34.275Z,28.10
2018-06-01T03:23:36.794Z,29.20
2018-06-01T03:24:39.349Z,26.57
2018-06-01T03:25:41.917Z,26.13
2018-06-01T03:26:44.451Z,29.97
2018-06-01T03:27:48.595Z,27.77
2018-06-01T03:28:51.091Z,27.13
2018-06-01T03:29:53.589Z,28.53
2018-06-01T03:30:56.103Z,25.70
2018-06-01T03:31:58.627Z,25.63
2018-06-01T03:33:01.161Z,26.93
2018-06-01T03:34:03.664Z,27.03
2018-06-01T03:35:06.161Z,28.27
2018-06-01T03:36:08.661Z,30.37
2018-06-01T03:37:11.154Z,25.67
2018-06-01T03:38:13.665Z,27.27
2018-06-01T03:39:16.176Z,27.50
2018-06-01T03:40:18.683Z,29.17
2018-06-01T03:41:21.217Z,26.53
2018-06-01T03:42:23.752Z,27.90
2018-06-01T03:43:26.242Z,28.40
2018-06-01T03:44:28.741Z,27.00
2018-06-01T03:45:31.257Z,25.50
2018-06-01T03:46:33.738Z,30.90
2018-06-01T03:47:36.245Z,25.20
2018-06-01T03:48:38.730Z,30.60
2018-06-01T03:49:41.575Z,27.50
2018-06-01T03:50:44.177Z,26.03
2018-06-01T03:51:46.699Z,26.17
2018-06-01T03:52:49.231Z,25.90
2018-06-01T03:53:51.736Z,29.30
2018-06-01T03:54:54.249Z,29.27
2018-06-01T03:55:56.778Z,24.43
2018-06-01T03:57:00.044Z,25.70
2018-06-01T03:58:02.584Z,24.33
2018-06-01T03:59:05.083Z,24.40
2018-06-01T04:00:07.595Z,26.23
2018-06-01T04:01:10.148Z,26.37
2018-06-01T04:02:12.712Z,26.30
2018-06-01T04:03:15.235Z,26.53
2018-06-01T04:04:17.752Z,29.43
2018-06-01T04:05:20.291Z,26.60
2018-06-01T04:06:23.292Z,30.33
2018-06-01T04:07:25.810Z,25.10
2018-06-01T04:08:28.975Z,27.50
2018-06-01T04:09:31.507Z,26.07
2018-06-01T04:10:34.019Z,27.40
2018-06-01T04:11:36.502Z,25.07
2018-06-01T04:12:39.029Z,25.77
2018-06-01T04:13:41.534Z,25.70
2018-06-01T04:14:44.104Z,26.70
2018-06-01T04:15:47.525Z,26.70
2018-06-01T04:16:50.035Z,24.87
2018-06-01T04:17:53.044Z,25.30
2018-06-01T04:18:55.566Z,24.83
2018-06-01T04:19:58.050Z,31.23
2018-06-01T04:21:00.598Z,27.53
2018-06-01T04:22:03.109Z,26.27
2018-06-01T04:23:05.595Z,24.50
2018-06-01T04:24:08.109Z,23.20
2018-06-01T04:25:10.624Z,24.13
2018-06-01T04:26:13.143Z,25.23
2018-06-01T04:27:16.574Z,25.00
2018-06-01T04:28:19.063Z,26.20
2018-06-01T04:29:21.594Z,22.90
2018-06-01T04:30:24.108Z,23.40
2018-06-01T04:31:26.601Z,30.33
2018-06-01T04:32:29.088Z,24.67
2018-06-01T04:33:31.570Z,24.43
2018-06-01T04:34:34.127Z,24.93
2018-06-01T04:35:36.638Z,25.20
2018-06-01T04:36:39.154Z,23.90
2018-06-01T04:37:41.678Z,25.00
2018-06-01T04:38:44.170Z,24.07
2018-06-01T04:39:46.677Z,25.37
2018-06-01T04:40:49.195Z,23.60
2018-06-01T04:41:51.697Z,25.00
2018-06-01T04:42:54.178Z,24.33
2018-06-01T04:43:56.676Z,22.00
2018-06-01T04:44:59.194Z,23.30
2018-06-01T04:46:01.691Z,29.40
2018-06-01T04:47:04.195Z,22.50
2018-06-01T04:48:06.768Z,25.33
2018-06-01T04:49:09.345Z,31.07
2018-06-01T04:50:11.836Z,23.03
2018-06-01T04:51:14.322Z,25.10
2018-06-01T04:52:16.821Z,24.33
2018-06-01T04:53:19.377Z,29.33
2018-06-01T04:54:21.892Z,24.60
2018-06-01T04:55:24.427Z,22.70
2018-06-01T04:56:26.925Z,25.17
2018-06-01T04:57:29.435Z,21.93
2018-06-01T04:58:31.929Z,25.73
2018-06-01T04:59:34.448Z,24.80
2018-06-01T05:00:36.953Z,29.33
2018-06-01T05:01:39.463Z,24.83
2018-06-01T05:02:41.960Z,24.80
2018-06-01T05:03:44.449Z,25.70
2018-06-01T05:04:46.959Z,24.17
2018-06-01T05:05:49.491Z,23.53
2018-06-01T05:06:51.983Z,22.40
2018-06-01T05:07:54.477Z,22.57
2018-06-01T05:08:56.990Z,23.23
2018-06-01T05:09:59.481Z,25.40
2018-06-01T05:11:02.005Z,25.67
2018-06-01T05:12:04.504Z,25.73
2018-06-01T05:13:07.040Z,22.93
2018-06-01T05:14:09.537Z,25.53
2018-06-01T05:15:12.037Z,25.97
2018-06-01T05:16:14.571Z,26.23
2018-06-01T05:17:17.061Z,26.10
2018-06-01T05:18:19.577Z,21.90
2018-06-01T05:19:22.059Z,23.40
2018-06-01T05:20:24.562Z,22.90
2018-06-01T05:21:27.094Z,25.20
2018-06-01T05:22:29.593Z,23.10
2018-06-01T05:23:32.093Z,23.77
2018-06-01T05:24:34.610Z,23.53
2018-06-01T05:25:37.127Z,22.27
2018-06-01T05:26:39.666Z,22.50
2018-06-01T05:27:42.243Z,23.50
2018-06-01T05:28:44.725Z,21.90
2018-06-01T05:29:47.237Z,24.47
2018-06-01T05:30:49.755Z,20.73
2018-06-01T05:31:52.281Z,22.20
2018-06-01T05:32:54.767Z,22.97
2018-06-01T05:33:57.287Z,22.83
2018-06-01T05:34:59.837Z,22.83
2018-06-01T05:36:02.349Z,24.60
2018-06-01T05:37:04.857Z,23.40
2018-06-01T05:38:07.356Z,25.07
2018-06-01T05:39:09.851Z,24.43
2018-06-01T05:40:12.360Z,21.93
2018-06-01T05:41:14.879Z,21.30
2018-06-01T05:42:17.394Z,21.40
2018-06-01T05:43:19.875Z,22.30
2018-06-01T05:44:22.369Z,20.13
2018-06-01T05:45:24.863Z,22.47
2018-06-01T05:46:27.361Z,25.37
2018-06-01T05:47:29.908Z,24.93
2018-06-01T05:48:32.410Z,21.47
2018-06-01T05:49:34.899Z,20.53
2018-06-01T05:50:37.386Z,24.93
2018-06-01T05:51:39.867Z,22.10
2018-06-01T05:52:42.378Z,23.27
2018-06-01T05:53:44.862Z,23.60
2018-06-01T05:54:47.347Z,23.97
2018-06-01T05:55:49.827Z,25.80
2018-06-01T05:56:52.341Z,22.27
2018-06-01T05:57:54.876Z,24.57
2018-06-01T05:58:57.384Z,23.10
2018-06-01T05:59:59.901Z,23.17
2018-06-01T06:01:02.387Z,24.23
2018-06-01T06:02:04.874Z,22.37
2018-06-01T06:03:07.371Z,23.17
2018-06-01T06:04:09.854Z,21.13
2018-06-01T06:05:12.371Z,21.87
2018-06-01T06:06:14.871Z,21.33
2018-06-01T06:07:17.373Z,22.43
2018-06-01T06:08:19.890Z,23.53
2018-06-01T06:09:22.414Z,21.60
2018-06-01T06:10:24.935Z,22.27
2018-06-01T06:11:27.432Z,20.33
2018-06-01T06:12:29.913Z,22.60
2018-06-01T06:13:32.466Z,22.50
2018-06-01T06:14:34.940Z,20.47
2018-06-01T06:15:37.427Z,24.67
2018-06-01T06:16:39.935Z,22.60
2018-06-01T06:17:42.440Z,23.30
2018-06-01T06:18:44.975Z,22.10
2018-06-01T06:19:47.498Z,21.20
2018-06-01T06:20:50.004Z,22.30
2018-06-01T06:21:52.498Z,25.60
2018-06-01T06:22:54.996Z,24.30
2018-06-01T06:23:57.528Z,22.80
2018-06-01T06:25:00.015Z,27.53
2018-06-01T06:26:02.514Z,22.03
2018-06-01T06:27:05.009Z,22.57
2018-06-01T06:28:07.564Z,27.83
2018-06-01T06:29:10.126Z,23.53
2018-06-01T06:30:12.634Z,20.50
2018-06-01T06:31:15.138Z,26.00
2018-06-01T06:32:17.656Z,21.37
2018-06-01T06:33:20.165Z,26.97
2018-06-01T06:34:22.685Z,24.03
2018-06-01T06:35:25.170Z,19.20
2018-06-01T06:36:27.732Z,24.47
2018-06-01T06:37:30.182Z,21.03
2018-06-01T06:38:32.685Z,23.87
2018-06-01T06:39:35.217Z,19.40
2018-06-01T06:40:37.699Z,21.40
2018-06-01T06:41:40.212Z,19.17
2018-06-01T06:42:42.723Z,25.20
2018-06-01T06:43:45.243Z,22.10
2018-06-01T06:44:47.742Z,24.13
2018-06-01T06:45:50.239Z,20.83
2018-06-01T06:46:52.750Z,19.57
2018-06-01T06:47:55.253Z,23.47
2018-06-01T06:48:57.738Z,24.73
2018-06-01T06:50:00.238Z,20.40
2018-06-01T06:51:02.719Z,21.70
2018-06-01T06:52:05.235Z,22.43
2018-06-01T06:53:07.729Z,23.43
2018-06-01T06:54:10.235Z,24.43
2018-06-01T06:55:12.771Z,21.80
2018-06-01T06:56:15.274Z,22.70
2018-06-01T06:57:17.760Z,27.47
2018-06-01T06:58:20.280Z,27.87
2018-06-01T06:59:22.768Z,22.30
2018-06-01T07:00:25.305Z,24.20
2018-06-01T07:01:27.786Z,31.07
2018-06-01T07:02:30.300Z,21.57
2018-06-01T07:03:32.801Z,23.43
2018-06-01T07:04:35.287Z,25.23
2018-06-01T07:05:37.791Z,21.80
2018-06-01T07:06:40.289Z,23.83
2018-06-01T07:07:42.775Z,24.00
2018-06-01T07:08:45.273Z,22.03
2018-06-01T07:09:47.769Z,23.57
2018-06-01T07:10:50.330Z,25.73
2018-06-01T07:11:52.810Z,23.07
2018-06-01T07:12:55.302Z,22.77
2018-06-01T07:13:57.800Z,24.77
2018-06-01T07:15:00.322Z,21.37
2018-06-01T07:16:02.842Z,24.40
2018-06-01T07:17:05.353Z,33.33
2018-06-01T07:18:07.853Z,24.80
2018-06-01T07:19:10.337Z,27.40
2018-06-01T07:20:12.840Z,29.00
2018-06-01T07:21:15.380Z,31.30
2018-06-01T07:22:17.867Z,27.70
2018-06-01T07:23:20.459Z,30.23
2018-06-01T07:24:22.957Z,31.73
2018-06-01T07:25:25.493Z,30.67
2018-06-01T07:26:27.992Z,30.27
2018-06-01T07:27:30.543Z,28.40
2018-06-01T07:28:33.638Z,35.27
2018-06-01T07:29:36.159Z,41.70
2018-06-01T07:30:38.662Z,27.30
2018-06-01T07:31:41.183Z,31.80
2018-06-01T07:32:43.695Z,27.63
2018-06-01T07:33:46.226Z,23.00
2018-06-01T07:34:48.733Z,27.27
2018-06-01T07:35:51.218Z,33.47
2018-06-01T07:36:53.738Z,35.33
2018-06-01T07:37:56.255Z,32.70
2018-06-01T07:38:58.738Z,30.90
2018-06-01T07:40:01.238Z,30.30
2018-06-01T07:41:03.792Z,33.60
2018-06-01T07:42:06.309Z,30.40
2018-06-01T07:43:08.820Z,33.60
2018-06-01T07:44:11.310Z,32.13
2018-06-01T07:45:13.805Z,32.13
2018-06-01T07:46:16.319Z,32.53
2018-06-01T07:47:18.840Z,34.00
2018-06-01T07:48:21.337Z,30.57
2018-06-01T07:49:23.836Z,30.17
2018-06-01T07:50:26.338Z,31.40
2018-06-01T07:51:28.848Z,26.43
2018-06-01T07:52:31.369Z,28.33
2018-06-01T07:53:33.893Z,26.17
2018-06-01T07:54:36.442Z,24.30
2018-06-01T07:55:38.907Z,26.00
2018-06-01T07:56:41.394Z,29.67
2018-06-01T07:57:43.920Z,24.33
2018-06-01T07:58:46.431Z,23.20
2018-06-01T07:59:48.947Z,23.33
2018-06-01T08:00:51.540Z,18.63
2018-06-01T08:01:54.022Z,18.60
2018-06-01T08:02:56.563Z,17.03
2018-06-01T08:03:59.069Z,18.27
2018-06-01T08:05:01.580Z,24.20
2018-06-01T08:06:04.066Z,40.60
2018-06-01T08:07:06.565Z,27.30
2018-06-01T08:08:09.085Z,17.17
2018-06-01T08:09:11.945Z,24.93
2018-06-01T08:10:14.421Z,30.90
2018-06-01T08:11:16.902Z,36.50
2018-06-01T08:12:19.411Z,29.13
2018-06-01T08:13:21.945Z,27.80
2018-06-01T08:14:24.433Z,20.33
2018-06-01T08:15:26.944Z,28.37
2018-06-01T08:16:29.443Z,15.67
2018-06-01T08:17:31.935Z,20.77
2018-06-01T08:18:34.472Z,16.87
2018-06-01T08:19:36.971Z,14.80
2018-06-01T08:20:38.769Z,18.13
2018-06-01T08:21:41.255Z,16.33
2018-06-01T08:22:43.753Z,18.83
2018-06-01T08:23:46.284Z,14.40
2018-06-01T08:24:48.785Z,18.80
2018-06-01T08:25:51.277Z,13.57
2018-06-01T08:26:53.827Z,19.77
2018-06-01T08:27:56.298Z,13.30
2018-06-01T08:28:58.795Z,17.50
2018-06-01T08:30:01.275Z,16.30
2018-06-01T08:31:03.777Z,15.03
2018-06-01T08:32:06.858Z,16.30
2018-06-01T08:33:09.373Z,19.90
2018-06-01T08:34:11.874Z,18.20
2018-06-01T08:35:14.459Z,17.97
2018-06-01T08:36:16.953Z,16.80
2018-06-01T08:37:19.476Z,12.63
2018-06-01T08:38:21.977Z,17.47
2018-06-01T08:39:24.524Z,15.43
2018-06-01T08:40:27.031Z,13.40
2018-06-01T08:41:29.552Z,13.23
2018-06-01T08:42:32.053Z,17.47
2018-06-01T08:43:34.567Z,14.53
2018-06-01T08:44:37.066Z,15.13
2018-06-01T08:45:39.564Z,13.33
2018-06-01T08:46:42.076Z,13.47
2018-06-01T08:47:44.539Z,13.93
2018-06-01T08:48:47.042Z,11.50
2018-06-01T08:49:49.552Z,12.33
2018-06-01T08:50:52.036Z,13.53
2018-06-01T08:51:54.537Z,16.83
2018-06-01T08:52:57.041Z,20.03
2018-06-01T08:53:59.544Z,12.47
2018-06-01T08:55:02.065Z,11.17
2018-06-01T08:56:04.548Z,20.40
2018-06-01T08:57:07.072Z,13.60
2018-06-01T08:58:09.569Z,14.87
2018-06-01T08:59:12.129Z,15.23
2018-06-01T09:00:14.638Z,16.57
2018-06-01T09:01:17.120Z,13.93
2018-06-01T09:02:19.622Z,12.67
2018-06-01T09:03:22.131Z,11.70
2018-06-01T09:04:24.633Z,13.83
2018-06-01T09:05:27.161Z,13.63
2018-06-01T09:06:29.657Z,26.40
2018-06-01T09:07:32.179Z,14.73
2018-06-01T09:08:34.692Z,14.50
2018-06-01T09:09:37.189Z,14.90
2018-06-01T09:10:39.708Z,20.97
2018-06-01T09:11:42.223Z,15.80
2018-06-01T09:12:44.725Z,15.03
2018-06-01T09:13:47.220Z,13.87
2018-06-01T09:14:49.716Z,13.70
2018-06-01T09:15:52.227Z,19.97
2018-06-01T09:16:54.740Z,14.10
2018-06-01T09:17:57.249Z,15.37
2018-06-01T09:18:59.749Z,17.33
2018-06-01T09:20:02.253Z,19.20
2018-06-01T09:21:04.769Z,13.53
2018-06-01T09:22:07.264Z,13.60
2018-06-01T09:23:09.773Z,13.77
2018-06-01T09:24:12.294Z,13.10
2018-06-01T09:25:14.803Z,15.97
2018-06-01T09:26:17.321Z,14.17
2018-06-01T09:27:19.826Z,14.90
2018-06-01T09:28:22.374Z,14.90
2018-06-01T09:29:24.846Z,15.57
2018-06-01T09:30:27.352Z,16.47
2018-06-01T09:31:29.872Z,16.87
2018-06-01T09:32:32.358Z,16.27
2018-06-01T09:33:34.855Z,13.67
2018-06-01T09:34:37.353Z,16.50
2018-06-01T09:35:39.858Z,15.50
2018-06-01T09:36:42.377Z,13.10
2018-06-01T09:37:44.877Z,15.47
2018-06-01T09:38:47.358Z,16.63
2018-06-01T09:39:49.853Z,16.87
2018-06-01T09:40:52.380Z,15.40
2018-06-01T09:41:54.893Z,16.90
2018-06-01T09:42:57.381Z,18.40
2018-06-01T09:43:59.881Z,18.70
2018-06-01T09:45:02.384Z,18.20
2018-06-01T09:46:04.876Z,15.80
2018-06-01T09:47:07.392Z,15.63
2018-06-01T09:48:09.894Z,17.93
2018-06-01T09:49:12.397Z,18.00
2018-06-01T09:50:15.711Z,20.80
2018-06-01T09:51:18.278Z,19.30
2018-06-01T09:52:20.797Z,19.57
2018-06-01T09:53:23.453Z,19.43
2018-06-01T09:54:26.056Z,17.53
2018-06-01T09:55:28.912Z,17.47
2018-06-01T09:56:31.481Z,16.93
2018-06-01T09:57:34.100Z,16.93
2018-06-01T09:58:36.635Z,16.43
2018-06-01T09:59:39.191Z,18.43
2018-06-01T10:00:47.473Z,19.33
2018-06-01T10:01:50.173Z,17.80
2018-06-01T10:02:52.742Z,18.20
2018-06-01T10:03:55.646Z,17.67
2018-06-01T10:04:58.245Z,16.37
2018-06-01T10:06:00.839Z,22.70
2018-06-01T10:07:03.738Z,17.43
2018-06-01T10:08:06.366Z,19.33
2018-06-01T10:09:09.723Z,16.27
2018-06-01T10:10:17.869Z,16.17
2018-06-01T10:11:20.898Z,19.00
2018-06-01T10:12:23.461Z,18.23
2018-06-01T10:13:26.161Z,17.73
2018-06-01T10:14:29.106Z,16.37
2018-06-01T10:15:31.818Z,17.30
2018-06-01T10:16:34.456Z,18.80
2018-06-01T10:17:37.837Z,15.53
2018-06-01T10:18:40.461Z,18.80
2018-06-01T10:19:43.174Z,16.30
2018-06-01T10:20:46.549Z,15.63
2018-06-01T10:21:49.069Z,17.00
2018-06-01T10:22:51.625Z,14.73
2018-06-01T10:23:54.315Z,21.30
2018-06-01T10:24:57.193Z,15.73
2018-06-01T10:25:59.805Z,18.27
2018-06-01T10:27:02.406Z,20.37
2018-06-01T10:28:05.161Z,18.43
2018-06-01T10:29:08.223Z,16.60
2018-06-01T10:30:10.914Z,16.07
2018-06-01T10:31:13.462Z,16.60
2018-06-01T10:32:16.747Z,18.07
2018-06-01T10:33:19.350Z,17.53
2018-06-01T10:34:21.938Z,15.97
2018-06-01T10:35:24.546Z,16.43
2018-06-01T10:36:27.067Z,16.30
2018-06-01T10:37:29.731Z,16.50
2018-06-01T10:38:32.828Z,15.13
2018-06-01T10:39:35.386Z,14.33
2018-06-01T10:40:38.204Z,21.67
2018-06-01T10:41:40.765Z,15.50
2018-06-01T10:42:43.350Z,14.37
2018-06-01T10:43:46.342Z,15.20
2018-06-01T10:44:48.878Z,16.93
2018-06-01T10:45:51.481Z,15.60
2018-06-01T10:46:54.437Z,14.40
2018-06-01T10:47:57.094Z,15.97
2018-06-01T10:48:59.965Z,18.93
2018-06-01T10:50:02.731Z,17.20
2018-06-01T10:51:05.291Z,16.67
2018-06-01T10:52:07.845Z,15.43
2018-06-01T10:53:10.818Z,15.23
2018-06-01T10:54:13.349Z,14.90
2018-06-01T10:55:15.982Z,14.43
2018-06-01T10:56:18.537Z,14.07
2018-06-01T10:57:21.040Z,21.40
2018-06-01T10:58:23.548Z,16.53
2018-06-01T10:59:26.083Z,18.00
2018-06-01T11:00:28.589Z,15.53
2018-06-01T11:01:31.108Z,17.00
2018-06-01T11:02:33.609Z,16.73
2018-06-01T11:03:36.120Z,16.37
2018-06-01T11:04:38.619Z,17.87
2018-06-01T11:05:41.116Z,13.63
2018-06-01T11:06:43.617Z,17.63
2018-06-01T11:07:46.113Z,15.87
2018-06-01T11:08:48.613Z,20.30
2018-06-01T11:09:51.144Z,18.60
2018-06-01T11:10:53.630Z,19.97
2018-06-01T11:11:56.155Z,22.60
2018-06-01T11:12:58.671Z,23.07
2018-06-01T11:14:01.200Z,27.87
2018-06-01T11:15:03.700Z,27.43
2018-06-01T11:16:06.186Z,27.47
2018-06-01T11:17:08.672Z,30.20
2018-06-01T11:18:11.183Z,33.13
2018-06-01T11:19:13.686Z,32.30
2018-06-01T11:20:16.165Z,39.20
2018-06-01T11:21:18.735Z,35.90
2018-06-01T11:22:21.213Z,38.13
2018-06-01T11:23:23.705Z,44.00
2018-06-01T11:24:26.238Z,38.67
2018-06-01T11:25:28.726Z,38.93
2018-06-01T11:26:31.373Z,40.30
2018-06-01T11:27:33.890Z,36.97
2018-06-01T11:28:36.394Z,40.27
2018-06-01T11:29:38.879Z,40.53
2018-06-01T11:30:41.391Z,43.30
2018-06-01T11:31:43.882Z,40.30
2018-06-01T11:32:46.445Z,37.23
2018-06-01T11:33:48.938Z,42.43
2018-06-01T11:34:51.433Z,40.33
2018-06-01T11:35:53.960Z,39.70
2018-06-01T11:36:56.613Z,43.33
2018-06-01T11:37:59.134Z,42.23
2018-06-01T11:39:01.646Z,45.47
2018-06-01T11:40:04.153Z,44.10
2018-06-01T11:41:06.667Z,40.30
2018-06-01T11:42:09.175Z,40.93
2018-06-01T11:43:11.693Z,40.43
2018-06-01T11:44:14.180Z,44.27
2018-06-01T11:45:16.703Z,44.50
2018-06-01T11:46:19.205Z,45.00
2018-06-01T11:47:21.723Z,43.23
2018-06-01T11:48:24.259Z,43.63
2018-06-01T11:49:26.769Z,45.10
2018-06-01T11:50:29.267Z,40.67
2018-06-01T11:51:31.769Z,43.40
2018-06-01T11:52:34.265Z,45.00
2018-06-01T11:53:36.762Z,41.10
2018-06-01T11:54:39.262Z,42.90
2018-06-01T11:55:41.796Z,47.70
2018-06-01T11:56:44.311Z,40.60
2018-06-01T11:57:46.839Z,48.10
2018-06-01T11:58:49.355Z,46.27
2018-06-01T11:59:51.846Z,45.70
2018-06-01T12:00:54.363Z,44.57
2018-06-01T12:01:56.861Z,46.60
2018-06-01T12:02:59.382Z,47.20
2018-06-01T12:04:01.899Z,52.43
2018-06-01T12:05:04.422Z,45.77
2018-06-01T12:06:06.941Z,49.33
2018-06-01T12:07:09.445Z,48.07
2018-06-01T12:08:11.948Z,45.47
2018-06-01T12:09:14.450Z,41.33
2018-06-01T12:10:16.963Z,47.80
2018-06-01T12:11:19.446Z,44.40
2018-06-01T12:12:21.982Z,47.27
2018-06-01T12:13:24.474Z,44.77
2018-06-01T12:14:26.974Z,40.30
2018-06-01T12:15:29.473Z,46.70
2018-06-01T12:16:31.987Z,50.70
2018-06-01T12:17:34.520Z,49.23
2018-06-01T12:18:37.033Z,42.00
2018-06-01T12:19:39.519Z,43.20
2018-06-01T12:20:42.006Z,39.90
2018-06-01T12:21:44.519Z,44.07
2018-06-01T12:22:47.033Z,41.93
2018-06-01T12:23:49.532Z,39.03
2018-06-01T12:24:52.038Z,39.93
2018-06-01T12:25:54.537Z,42.47
2018-06-01T12:26:57.049Z,39.67
2018-06-01T12:27:59.567Z,33.70
2018-06-01T12:29:02.086Z,38.20
2018-06-01T12:30:04.583Z,33.90
2018-06-01T12:31:07.066Z,36.37
2018-06-01T12:32:09.625Z,36.30
2018-06-01T12:33:12.144Z,36.40
2018-06-01T12:34:14.664Z,34.07
2018-06-01T12:35:17.173Z,30.23
2018-06-01T12:36:19.669Z,32.67
2018-06-01T12:37:22.180Z,30.93
2018-06-01T12:38:24.681Z,31.97
2018-06-01T12:39:27.171Z,28.97
2018-06-01T12:40:29.673Z,32.40
2018-06-01T12:41:32.175Z,27.20
2018-06-01T12:42:34.693Z,26.10
2018-06-01T12:43:37.203Z,24.53
2018-06-01T12:44:39.726Z,26.60
2018-06-01T12:45:42.228Z,25.67
2018-06-01T12:46:44.760Z,21.77
2018-06-01T12:47:47.264Z,19.17
2018-06-01T12:48:49.869Z,18.30
2018-06-01T12:49:52.403Z,19.73
2018-06-01T12:50:54.908Z,17.73
2018-06-01T12:51:57.433Z,14.37
2018-06-01T12:52:59.947Z,14.17
2018-06-01T12:54:02.499Z,13.20
2018-06-01T12:55:04.953Z,15.83
2018-06-01T12:56:07.481Z,13.10
2018-06-01T12:57:09.977Z,10.73
2018-06-01T12:58:12.485Z,8.90
2018-06-01T12:59:14.957Z,9.90
2018-06-01T13:00:17.468Z,10.27
2018-06-01T13:01:19.987Z,8.73
2018-06-01T13:02:22.485Z,11.97
2018-06-01T13:03:25.940Z,9.23
2018-06-01T13:04:28.470Z,9.30
2018-06-01T13:05:30.973Z,12.03
2018-06-01T13:06:33.495Z,8.80
2018-06-01T13:07:35.993Z,10.43
2018-06-01T13:08:38.508Z,10.17
2018-06-01T13:09:41.020Z,8.53
2018-06-01T13:10:43.661Z,13.37
2018-06-01T13:11:46.137Z,9.47
2018-06-01T13:12:48.629Z,10.47
2018-06-01T13:13:51.130Z,9.83
2018-06-01T13:14:53.640Z,9.07
2018-06-01T13:15:56.139Z,8.23
2018-06-01T13:16:58.651Z,9.53
2018-06-01T13:18:01.149Z,9.70
2018-06-01T13:19:03.646Z,7.10
2018-06-01T13:20:06.123Z,8.70
2018-06-01T13:21:08.637Z,8.57
2018-06-01T13:22:11.148Z,8.10
2018-06-01T13:23:13.663Z,10.50
2018-06-01T13:24:16.145Z,8.93
2018-06-01T13:25:18.657Z,9.60
2018-06-01T13:26:21.147Z,9.47